sensor_id;sensor_type;location;lat;lon;timestamp;P1;durP1;ratioP1;P2;durP2;ratioP2
45354;SDS011;31091;48.758;9.150;2023-04-25T00:02:42;4.18;;;2.03;;
45354;SDS011;31091;48.758;9.150;2023-04-25T00:05:27;4.13;;;1.83;;
45354;SDS011;31091;48.758;9.150;2023-04-25T00:08:12;3.17;;;2.17;;
45354;SDS011;31091;48.758;9.150;2023-04-25T00:10:58;4.03;;;2.13;;
45354;SDS011;31091;48.758;9.150;2023-04-25T00:13:43;3.50;;;2.30;;
45354;SDS011;31091;48.758;9.150;2023-04-25T00:16:28;4.38;;;2.08;;
45354;SDS011;31091;48.758;9.150;2023-04-25T00:19:15;3.70;;;1.88;;
45354;SDS011;31091;48.758;9.150;2023-04-25T00:22:00;5.35;;;2.20;;
45354;SDS011;31091;48.758;9.150;2023-04-25T00:24:45;5.60;;;2.08;;
45354;SDS011;31091;48.758;9.150;2023-04-25T00:27:31;4.20;;;2.13;;
45354;SDS011;31091;48.758;9.150;2023-04-25T00:30:16;3.55;;;1.88;;
45354;SDS011;31091;48.758;9.150;2023-04-25T00:33:01;3.42;;;1.70;;
45354;SDS011;31091;48.758;9.150;2023-04-25T00:35:46;4.25;;;2.15;;
45354;SDS011;31091;48.758;9.150;2023-04-25T00:38:32;3.80;;;2.00;;
45354;SDS011;31091;48.758;9.150;2023-04-25T00:41:17;2.03;;;1.75;;
45354;SDS011;31091;48.758;9.150;2023-04-25T00:44:03;2.97;;;1.35;;
45354;SDS011;31091;48.758;9.150;2023-04-25T00:46:49;1.83;;;1.60;;
45354;SDS011;31091;48.758;9.150;2023-04-25T00:49:35;4.72;;;1.73;;
45354;SDS011;31091;48.758;9.150;2023-04-25T00:52:20;3.22;;;1.55;;
45354;SDS011;31091;48.758;9.150;2023-04-25T00:55:06;2.67;;;1.55;;
45354;SDS011;31091;48.758;9.150;2023-04-25T00:57:51;4.97;;;2.10;;
45354;SDS011;31091;48.758;9.150;2023-04-25T01:00:36;2.03;;;1.63;;
45354;SDS011;31091;48.758;9.150;2023-04-25T01:03:22;3.72;;;1.80;;
45354;SDS011;31091;48.758;9.150;2023-04-25T01:06:08;3.88;;;1.92;;
45354;SDS011;31091;48.758;9.150;2023-04-25T01:08:54;2.28;;;1.55;;
45354;SDS011;31091;48.758;9.150;2023-04-25T01:11:39;3.50;;;1.77;;
45354;SDS011;31091;48.758;9.150;2023-04-25T01:14:25;9.68;;;1.67;;
45354;SDS011;31091;48.758;9.150;2023-04-25T01:17:10;4.03;;;1.55;;
45354;SDS011;31091;48.758;9.150;2023-04-25T01:19:55;3.38;;;1.70;;
45354;SDS011;31091;48.758;9.150;2023-04-25T01:22:41;1.83;;;1.58;;
45354;SDS011;31091;48.758;9.150;2023-04-25T01:25:26;4.95;;;1.95;;
45354;SDS011;31091;48.758;9.150;2023-04-25T01:28:12;3.38;;;1.60;;
45354;SDS011;31091;48.758;9.150;2023-04-25T01:30:57;2.58;;;1.60;;
45354;SDS011;31091;48.758;9.150;2023-04-25T01:33:42;3.05;;;1.52;;
45354;SDS011;31091;48.758;9.150;2023-04-25T01:36:28;2.83;;;1.50;;
45354;SDS011;31091;48.758;9.150;2023-04-25T01:39:13;2.28;;;1.60;;
45354;SDS011;31091;48.758;9.150;2023-04-25T01:41:59;2.97;;;1.77;;
45354;SDS011;31091;48.758;9.150;2023-04-25T01:44:44;3.10;;;1.67;;
45354;SDS011;31091;48.758;9.150;2023-04-25T01:47:29;2.08;;;1.63;;
45354;SDS011;31091;48.758;9.150;2023-04-25T01:50:15;3.78;;;1.80;;
45354;SDS011;31091;48.758;9.150;2023-04-25T01:53:01;4.43;;;1.88;;
45354;SDS011;31091;48.758;9.150;2023-04-25T01:55:47;3.92;;;1.90;;
45354;SDS011;31091;48.758;9.150;2023-04-25T01:58:32;2.92;;;1.95;;
45354;SDS011;31091;48.758;9.150;2023-04-25T02:01:17;3.50;;;2.15;;
45354;SDS011;31091;48.758;9.150;2023-04-25T02:04:02;4.82;;;1.88;;
45354;SDS011;31091;48.758;9.150;2023-04-25T02:06:48;3.95;;;2.00;;
45354;SDS011;31091;48.758;9.150;2023-04-25T02:09:33;1.40;;;1.13;;
45354;SDS011;31091;48.758;9.150;2023-04-25T02:12:18;4.65;;;2.40;;
45354;SDS011;31091;48.758;9.150;2023-04-25T02:15:03;2.42;;;1.33;;
45354;SDS011;31091;48.758;9.150;2023-04-25T02:17:49;2.42;;;1.75;;
45354;SDS011;31091;48.758;9.150;2023-04-25T02:20:34;6.68;;;1.88;;
45354;SDS011;31091;48.758;9.150;2023-04-25T02:23:19;2.60;;;1.92;;
45354;SDS011;31091;48.758;9.150;2023-04-25T02:26:05;2.33;;;1.58;;
45354;SDS011;31091;48.758;9.150;2023-04-25T02:28:50;3.45;;;1.83;;
45354;SDS011;31091;48.758;9.150;2023-04-25T02:31:36;2.85;;;1.50;;
45354;SDS011;31091;48.758;9.150;2023-04-25T02:34:21;3.30;;;1.88;;
45354;SDS011;31091;48.758;9.150;2023-04-25T02:37:06;4.63;;;1.80;;
45354;SDS011;31091;48.758;9.150;2023-04-25T02:39:52;3.80;;;1.80;;
45354;SDS011;31091;48.758;9.150;2023-04-25T02:42:37;2.20;;;1.63;;
45354;SDS011;31091;48.758;9.150;2023-04-25T02:45:22;2.30;;;1.73;;
45354;SDS011;31091;48.758;9.150;2023-04-25T02:48:07;4.60;;;1.58;;
45354;SDS011;31091;48.758;9.150;2023-04-25T02:50:53;3.28;;;1.90;;
45354;SDS011;31091;48.758;9.150;2023-04-25T02:53:38;3.65;;;2.20;;
45354;SDS011;31091;48.758;9.150;2023-04-25T02:56:23;2.67;;;1.92;;
45354;SDS011;31091;48.758;9.150;2023-04-25T02:59:11;3.33;;;1.60;;
45354;SDS011;31091;48.758;9.150;2023-04-25T03:01:56;4.38;;;1.80;;
45354;SDS011;31091;48.758;9.150;2023-04-25T03:04:41;4.30;;;2.38;;
45354;SDS011;31091;48.758;9.150;2023-04-25T03:07:26;3.83;;;1.60;;
45354;SDS011;31091;48.758;9.150;2023-04-25T03:10:12;5.55;;;1.90;;
45354;SDS011;31091;48.758;9.150;2023-04-25T03:12:57;9.25;;;2.17;;
45354;SDS011;31091;48.758;9.150;2023-04-25T03:15:43;3.70;;;1.80;;
45354;SDS011;31091;48.758;9.150;2023-04-25T03:18:28;6.47;;;2.63;;
45354;SDS011;31091;48.758;9.150;2023-04-25T03:21:13;2.30;;;1.50;;
45354;SDS011;31091;48.758;9.150;2023-04-25T03:24:00;4.90;;;1.60;;
45354;SDS011;31091;48.758;9.150;2023-04-25T03:26:46;3.90;;;2.10;;
45354;SDS011;31091;48.758;9.150;2023-04-25T03:29:31;4.10;;;2.13;;
45354;SDS011;31091;48.758;9.150;2023-04-25T03:32:16;3.78;;;1.80;;
45354;SDS011;31091;48.758;9.150;2023-04-25T03:35:01;3.53;;;1.65;;
45354;SDS011;31091;48.758;9.150;2023-04-25T03:37:47;4.45;;;2.00;;
45354;SDS011;31091;48.758;9.150;2023-04-25T03:40:32;1.85;;;1.40;;
45354;SDS011;31091;48.758;9.150;2023-04-25T03:43:17;2.72;;;1.83;;
45354;SDS011;31091;48.758;9.150;2023-04-25T03:46:02;4.93;;;1.90;;
45354;SDS011;31091;48.758;9.150;2023-04-25T03:48:48;2.35;;;1.40;;
45354;SDS011;31091;48.758;9.150;2023-04-25T03:51:33;2.53;;;1.52;;
45354;SDS011;31091;48.758;9.150;2023-04-25T03:54:18;2.40;;;1.42;;
45354;SDS011;31091;48.758;9.150;2023-04-25T03:57:03;4.03;;;1.70;;
45354;SDS011;31091;48.758;9.150;2023-04-25T03:59:48;2.63;;;1.80;;
45354;SDS011;31091;48.758;9.150;2023-04-25T04:02:34;6.78;;;3.47;;
45354;SDS011;31091;48.758;9.150;2023-04-25T04:05:20;4.82;;;1.85;;
45354;SDS011;31091;48.758;9.150;2023-04-25T04:08:05;1.65;;;1.38;;
45354;SDS011;31091;48.758;9.150;2023-04-25T04:10:50;3.10;;;1.63;;
45354;SDS011;31091;48.758;9.150;2023-04-25T04:13:35;4.22;;;1.95;;
45354;SDS011;31091;48.758;9.150;2023-04-25T04:16:21;2.65;;;1.67;;
45354;SDS011;31091;48.758;9.150;2023-04-25T04:19:06;5.38;;;1.90;;
45354;SDS011;31091;48.758;9.150;2023-04-25T04:21:51;3.25;;;1.60;;
45354;SDS011;31091;48.758;9.150;2023-04-25T04:24:36;2.90;;;1.92;;
45354;SDS011;31091;48.758;9.150;2023-04-25T04:27:22;3.88;;;1.88;;
45354;SDS011;31091;48.758;9.150;2023-04-25T04:30:07;3.28;;;2.20;;
45354;SDS011;31091;48.758;9.150;2023-04-25T04:32:53;4.63;;;2.10;;
45354;SDS011;31091;48.758;9.150;2023-04-25T04:35:38;2.97;;;1.92;;
45354;SDS011;31091;48.758;9.150;2023-04-25T04:38:23;10.68;;;2.10;;
45354;SDS011;31091;48.758;9.150;2023-04-25T04:41:08;3.22;;;1.63;;
45354;SDS011;31091;48.758;9.150;2023-04-25T04:43:54;2.92;;;1.85;;
45354;SDS011;31091;48.758;9.150;2023-04-25T04:46:40;5.85;;;1.70;;
45354;SDS011;31091;48.758;9.150;2023-04-25T04:49:29;5.78;;;2.30;;
45354;SDS011;31091;48.758;9.150;2023-04-25T04:52:14;3.88;;;1.85;;
45354;SDS011;31091;48.758;9.150;2023-04-25T04:54:59;2.97;;;2.00;;
45354;SDS011;31091;48.758;9.150;2023-04-25T04:57:45;3.83;;;2.17;;
45354;SDS011;31091;48.758;9.150;2023-04-25T05:00:31;2.63;;;1.83;;
45354;SDS011;31091;48.758;9.150;2023-04-25T05:03:16;4.00;;;1.95;;
45354;SDS011;31091;48.758;9.150;2023-04-25T05:06:02;5.25;;;2.00;;
45354;SDS011;31091;48.758;9.150;2023-04-25T05:08:47;2.92;;;1.75;;
45354;SDS011;31091;48.758;9.150;2023-04-25T05:11:32;6.13;;;2.45;;
45354;SDS011;31091;48.758;9.150;2023-04-25T05:14:18;5.57;;;2.10;;
45354;SDS011;31091;48.758;9.150;2023-04-25T05:17:03;4.03;;;2.03;;
45354;SDS011;31091;48.758;9.150;2023-04-25T05:19:53;6.70;;;2.15;;
45354;SDS011;31091;48.758;9.150;2023-04-25T05:22:38;5.75;;;2.20;;
45354;SDS011;31091;48.758;9.150;2023-04-25T05:25:23;4.10;;;2.25;;
45354;SDS011;31091;48.758;9.150;2023-04-25T05:28:08;10.32;;;2.42;;
45354;SDS011;31091;48.758;9.150;2023-04-25T05:30:54;6.90;;;2.65;;
45354;SDS011;31091;48.758;9.150;2023-04-25T05:33:39;3.55;;;2.53;;
45354;SDS011;31091;48.758;9.150;2023-04-25T05:36:24;5.70;;;2.35;;
45354;SDS011;31091;48.758;9.150;2023-04-25T05:39:10;2.67;;;1.80;;
45354;SDS011;31091;48.758;9.150;2023-04-25T05:41:56;5.38;;;2.53;;
45354;SDS011;31091;48.758;9.150;2023-04-25T05:44:41;5.05;;;2.28;;
45354;SDS011;31091;48.758;9.150;2023-04-25T05:47:26;4.47;;;2.97;;
45354;SDS011;31091;48.758;9.150;2023-04-25T05:50:11;4.53;;;2.63;;
45354;SDS011;31091;48.758;9.150;2023-04-25T05:52:57;5.35;;;2.88;;
45354;SDS011;31091;48.758;9.150;2023-04-25T05:55:42;4.68;;;2.53;;
45354;SDS011;31091;48.758;9.150;2023-04-25T05:58:27;4.47;;;2.58;;
45354;SDS011;31091;48.758;9.150;2023-04-25T06:01:13;6.20;;;3.45;;
45354;SDS011;31091;48.758;9.150;2023-04-25T06:03:59;3.38;;;2.67;;
45354;SDS011;31091;48.758;9.150;2023-04-25T06:06:44;6.20;;;2.22;;
45354;SDS011;31091;48.758;9.150;2023-04-25T06:09:29;8.02;;;3.08;;
45354;SDS011;31091;48.758;9.150;2023-04-25T06:12:15;4.57;;;2.10;;
45354;SDS011;31091;48.758;9.150;2023-04-25T06:15:00;2.83;;;1.98;;
45354;SDS011;31091;48.758;9.150;2023-04-25T06:17:45;5.85;;;2.60;;
45354;SDS011;31091;48.758;9.150;2023-04-25T06:20:31;5.43;;;2.45;;
45354;SDS011;31091;48.758;9.150;2023-04-25T06:23:16;2.28;;;1.83;;
45354;SDS011;31091;48.758;9.150;2023-04-25T06:26:01;7.53;;;2.63;;
45354;SDS011;31091;48.758;9.150;2023-04-25T06:28:46;6.07;;;1.80;;
45354;SDS011;31091;48.758;9.150;2023-04-25T06:31:32;4.72;;;1.92;;
45354;SDS011;31091;48.758;9.150;2023-04-25T06:34:18;7.70;;;2.85;;
45354;SDS011;31091;48.758;9.150;2023-04-25T06:37:03;10.25;;;2.65;;
45354;SDS011;31091;48.758;9.150;2023-04-25T06:39:49;2.85;;;2.08;;
45354;SDS011;31091;48.758;9.150;2023-04-25T06:42:34;8.70;;;2.45;;
45354;SDS011;31091;48.758;9.150;2023-04-25T06:45:19;3.83;;;2.10;;
45354;SDS011;31091;48.758;9.150;2023-04-25T06:48:05;6.53;;;2.55;;
45354;SDS011;31091;48.758;9.150;2023-04-25T06:50:50;3.30;;;2.05;;
45354;SDS011;31091;48.758;9.150;2023-04-25T06:53:35;5.78;;;1.92;;
45354;SDS011;31091;48.758;9.150;2023-04-25T06:56:21;5.70;;;2.33;;
45354;SDS011;31091;48.758;9.150;2023-04-25T06:59:06;3.03;;;1.95;;
45354;SDS011;31091;48.758;9.150;2023-04-25T07:01:51;3.42;;;2.30;;
45354;SDS011;31091;48.758;9.150;2023-04-25T07:04:37;2.53;;;1.85;;
45354;SDS011;31091;48.758;9.150;2023-04-25T07:07:22;4.22;;;2.95;;
45354;SDS011;31091;48.758;9.150;2023-04-25T07:10:07;4.30;;;2.53;;
45354;SDS011;31091;48.758;9.150;2023-04-25T07:12:52;4.10;;;2.75;;
45354;SDS011;31091;48.758;9.150;2023-04-25T07:15:38;4.93;;;2.40;;
45354;SDS011;31091;48.758;9.150;2023-04-25T07:18:23;16.00;;;5.57;;
45354;SDS011;31091;48.758;9.150;2023-04-25T07:21:08;10.27;;;3.28;;
45354;SDS011;31091;48.758;9.150;2023-04-25T07:23:53;4.70;;;2.60;;
45354;SDS011;31091;48.758;9.150;2023-04-25T07:26:39;5.60;;;3.53;;
45354;SDS011;31091;48.758;9.150;2023-04-25T07:29:24;8.00;;;2.83;;
45354;SDS011;31091;48.758;9.150;2023-04-25T07:32:09;6.93;;;2.30;;
45354;SDS011;31091;48.758;9.150;2023-04-25T07:34:57;12.15;;;2.25;;
45354;SDS011;31091;48.758;9.150;2023-04-25T07:37:42;2.58;;;2.38;;
45354;SDS011;31091;48.758;9.150;2023-04-25T07:40:27;4.28;;;2.90;;
45354;SDS011;31091;48.758;9.150;2023-04-25T07:43:12;4.15;;;2.38;;
45354;SDS011;31091;48.758;9.150;2023-04-25T07:46:01;3.33;;;2.30;;
45354;SDS011;31091;48.758;9.150;2023-04-25T07:48:47;3.58;;;2.33;;
45354;SDS011;31091;48.758;9.150;2023-04-25T07:51:32;3.75;;;2.63;;
45354;SDS011;31091;48.758;9.150;2023-04-25T07:54:17;5.85;;;3.30;;
45354;SDS011;31091;48.758;9.150;2023-04-25T07:57:03;4.07;;;2.67;;
45354;SDS011;31091;48.758;9.150;2023-04-25T07:59:48;6.25;;;3.05;;
45354;SDS011;31091;48.758;9.150;2023-04-25T08:02:33;6.40;;;3.50;;
45354;SDS011;31091;48.758;9.150;2023-04-25T08:05:18;6.65;;;4.18;;
45354;SDS011;31091;48.758;9.150;2023-04-25T08:08:04;5.38;;;2.80;;
45354;SDS011;31091;48.758;9.150;2023-04-25T08:10:51;10.30;;;3.30;;
45354;SDS011;31091;48.758;9.150;2023-04-25T08:13:36;4.47;;;2.75;;
45354;SDS011;31091;48.758;9.150;2023-04-25T08:16:21;5.93;;;3.05;;
45354;SDS011;31091;48.758;9.150;2023-04-25T08:19:07;11.40;;;3.58;;
45354;SDS011;31091;48.758;9.150;2023-04-25T08:21:52;4.07;;;2.50;;
45354;SDS011;31091;48.758;9.150;2023-04-25T08:24:37;9.00;;;3.20;;
45354;SDS011;31091;48.758;9.150;2023-04-25T08:27:23;7.70;;;2.63;;
45354;SDS011;31091;48.758;9.150;2023-04-25T08:30:08;4.07;;;2.38;;
45354;SDS011;31091;48.758;9.150;2023-04-25T08:32:54;7.72;;;2.75;;
45354;SDS011;31091;48.758;9.150;2023-04-25T08:35:39;5.82;;;2.53;;
45354;SDS011;31091;48.758;9.150;2023-04-25T08:38:24;10.82;;;2.65;;
45354;SDS011;31091;48.758;9.150;2023-04-25T08:41:10;5.10;;;3.00;;
45354;SDS011;31091;48.758;9.150;2023-04-25T08:43:56;6.63;;;2.67;;
45354;SDS011;31091;48.758;9.150;2023-04-25T08:46:42;5.18;;;2.50;;
45354;SDS011;31091;48.758;9.150;2023-04-25T08:49:27;5.90;;;3.00;;
45354;SDS011;31091;48.758;9.150;2023-04-25T08:52:13;6.03;;;3.00;;
45354;SDS011;31091;48.758;9.150;2023-04-25T08:54:58;7.63;;;3.58;;
45354;SDS011;31091;48.758;9.150;2023-04-25T08:57:46;6.13;;;3.03;;
45354;SDS011;31091;48.758;9.150;2023-04-25T09:00:31;7.03;;;3.00;;
45354;SDS011;31091;48.758;9.150;2023-04-25T09:03:17;5.85;;;2.90;;
45354;SDS011;31091;48.758;9.150;2023-04-25T09:06:03;6.38;;;3.13;;
45354;SDS011;31091;48.758;9.150;2023-04-25T09:08:49;5.50;;;3.33;;
45354;SDS011;31091;48.758;9.150;2023-04-25T09:11:35;5.63;;;2.92;;
45354;SDS011;31091;48.758;9.150;2023-04-25T09:14:22;4.60;;;3.03;;
45354;SDS011;31091;48.758;9.150;2023-04-25T09:17:07;7.40;;;2.88;;
45354;SDS011;31091;48.758;9.150;2023-04-25T09:19:52;4.38;;;2.90;;
45354;SDS011;31091;48.758;9.150;2023-04-25T09:22:38;3.85;;;2.35;;
45354;SDS011;31091;48.758;9.150;2023-04-25T09:25:23;5.22;;;3.38;;
45354;SDS011;31091;48.758;9.150;2023-04-25T09:28:10;5.40;;;3.33;;
45354;SDS011;31091;48.758;9.150;2023-04-25T09:30:56;7.10;;;3.20;;
45354;SDS011;31091;48.758;9.150;2023-04-25T09:33:44;7.65;;;3.47;;
45354;SDS011;31091;48.758;9.150;2023-04-25T09:36:30;5.82;;;3.50;;
45354;SDS011;31091;48.758;9.150;2023-04-25T09:39:16;6.88;;;3.42;;
45354;SDS011;31091;48.758;9.150;2023-04-25T09:42:02;6.28;;;3.33;;
45354;SDS011;31091;48.758;9.150;2023-04-25T09:44:47;4.65;;;2.70;;
45354;SDS011;31091;48.758;9.150;2023-04-25T09:47:36;6.53;;;3.58;;
45354;SDS011;31091;48.758;9.150;2023-04-25T09:53:09;4.00;;;2.42;;
45354;SDS011;31091;48.758;9.150;2023-04-25T09:55:55;4.53;;;2.55;;
45354;SDS011;31091;48.758;9.150;2023-04-25T09:58:41;4.82;;;2.67;;
45354;SDS011;31091;48.758;9.150;2023-04-25T10:01:27;4.68;;;2.63;;
45354;SDS011;31091;48.758;9.150;2023-04-25T10:04:12;5.00;;;2.63;;
45354;SDS011;31091;48.758;9.150;2023-04-25T10:06:59;2.85;;;1.83;;
45354;SDS011;31091;48.758;9.150;2023-04-25T10:09:44;3.10;;;2.15;;
45354;SDS011;31091;48.758;9.150;2023-04-25T10:12:35;3.33;;;1.60;;
45354;SDS011;31091;48.758;9.150;2023-04-25T10:15:21;2.00;;;1.60;;
45354;SDS011;31091;48.758;9.150;2023-04-25T10:18:07;5.55;;;1.80;;
45354;SDS011;31091;48.758;9.150;2023-04-25T10:20:53;8.98;;;1.88;;
45354;SDS011;31091;48.758;9.150;2023-04-25T10:23:39;7.30;;;2.88;;
45354;SDS011;31091;48.758;9.150;2023-04-25T10:26:25;3.03;;;1.40;;
45354;SDS011;31091;48.758;9.150;2023-04-25T10:29:10;2.75;;;2.03;;
45354;SDS011;31091;48.758;9.150;2023-04-25T10:31:55;2.97;;;1.83;;
45354;SDS011;31091;48.758;9.150;2023-04-25T10:34:42;1.95;;;1.08;;
45354;SDS011;31091;48.758;9.150;2023-04-25T10:37:27;1.27;;;1.08;;
45354;SDS011;31091;48.758;9.150;2023-04-25T10:40:15;1.45;;;1.25;;
45354;SDS011;31091;48.758;9.150;2023-04-25T10:46:15;3.33;;;1.08;;
45354;SDS011;31091;48.758;9.150;2023-04-25T10:49:01;1.60;;;0.95;;
45354;SDS011;31091;48.758;9.150;2023-04-25T10:51:47;1.80;;;1.08;;
45354;SDS011;31091;48.758;9.150;2023-04-25T10:54:32;2.08;;;1.10;;
45354;SDS011;31091;48.758;9.150;2023-04-25T10:57:36;2.75;;;1.15;;
45354;SDS011;31091;48.758;9.150;2023-04-25T11:00:22;2.45;;;1.00;;
45354;SDS011;31091;48.758;9.150;2023-04-25T11:03:15;2.53;;;1.87;;
45354;SDS011;31091;48.758;9.150;2023-04-25T11:06:01;2.80;;;1.52;;
45354;SDS011;31091;48.758;9.150;2023-04-25T11:08:48;1.92;;;1.48;;
45354;SDS011;31091;48.758;9.150;2023-04-25T11:11:36;3.47;;;2.10;;
45354;SDS011;31091;48.758;9.150;2023-04-25T11:14:21;1.80;;;1.63;;
45354;SDS011;31091;48.758;9.150;2023-04-25T11:17:06;3.67;;;1.42;;
45354;SDS011;31091;48.758;9.150;2023-04-25T11:19:52;2.22;;;2.03;;
45354;SDS011;31091;48.758;9.150;2023-04-25T11:22:39;2.60;;;2.20;;
45354;SDS011;31091;48.758;9.150;2023-04-25T11:25:27;1.98;;;1.45;;
45354;SDS011;31091;48.758;9.150;2023-04-25T11:28:20;2.70;;;1.90;;
45354;SDS011;31091;48.758;9.150;2023-04-25T11:31:05;2.90;;;1.90;;
45354;SDS011;31091;48.758;9.150;2023-04-25T11:33:52;3.35;;;2.15;;
45354;SDS011;31091;48.758;9.150;2023-04-25T11:36:38;2.70;;;1.95;;
45354;SDS011;31091;48.758;9.150;2023-04-25T11:39:23;5.38;;;2.53;;
45354;SDS011;31091;48.758;9.150;2023-04-25T11:42:09;2.35;;;1.70;;
45354;SDS011;31091;48.758;9.150;2023-04-25T11:44:54;3.10;;;1.63;;
45354;SDS011;31091;48.758;9.150;2023-04-25T11:47:40;2.53;;;1.45;;
45354;SDS011;31091;48.758;9.150;2023-04-25T11:50:25;3.55;;;2.03;;
45354;SDS011;31091;48.758;9.150;2023-04-25T11:53:13;3.00;;;1.70;;
45354;SDS011;31091;48.758;9.150;2023-04-25T11:55:58;3.53;;;1.90;;
45354;SDS011;31091;48.758;9.150;2023-04-25T11:58:56;1.90;;;1.55;;
45354;SDS011;31091;48.758;9.150;2023-04-25T12:01:47;2.78;;;1.80;;
45354;SDS011;31091;48.758;9.150;2023-04-25T12:04:32;3.20;;;1.58;;
45354;SDS011;31091;48.758;9.150;2023-04-25T12:07:18;4.43;;;2.30;;
45354;SDS011;31091;48.758;9.150;2023-04-25T12:10:07;3.13;;;1.98;;
45354;SDS011;31091;48.758;9.150;2023-04-25T12:12:52;3.38;;;2.08;;
45354;SDS011;31091;48.758;9.150;2023-04-25T12:15:40;2.85;;;1.95;;
45354;SDS011;31091;48.758;9.150;2023-04-25T12:18:25;2.60;;;2.10;;
45354;SDS011;31091;48.758;9.150;2023-04-25T12:21:13;4.05;;;2.30;;
45354;SDS011;31091;48.758;9.150;2023-04-25T12:24:12;3.30;;;2.50;;
45354;SDS011;31091;48.758;9.150;2023-04-25T12:26:59;5.97;;;2.55;;
45354;SDS011;31091;48.758;9.150;2023-04-25T12:29:51;4.30;;;2.65;;
45354;SDS011;31091;48.758;9.150;2023-04-25T12:32:37;6.07;;;3.40;;
45354;SDS011;31091;48.758;9.150;2023-04-25T12:35:23;9.07;;;3.10;;
45354;SDS011;31091;48.758;9.150;2023-04-25T12:38:09;6.70;;;4.30;;
45354;SDS011;31091;48.758;9.150;2023-04-25T12:40:54;4.63;;;2.95;;
45354;SDS011;31091;48.758;9.150;2023-04-25T12:43:39;6.07;;;3.17;;
45354;SDS011;31091;48.758;9.150;2023-04-25T12:46:24;4.40;;;2.90;;
45354;SDS011;31091;48.758;9.150;2023-04-25T12:49:10;5.05;;;3.13;;
45354;SDS011;31091;48.758;9.150;2023-04-25T12:51:55;4.32;;;2.50;;
45354;SDS011;31091;48.758;9.150;2023-04-25T12:54:40;5.68;;;3.75;;
45354;SDS011;31091;48.758;9.150;2023-04-25T12:57:25;6.18;;;3.65;;
45354;SDS011;31091;48.758;9.150;2023-04-25T13:00:11;6.90;;;3.40;;
45354;SDS011;31091;48.758;9.150;2023-04-25T13:02:59;7.75;;;3.78;;
45354;SDS011;31091;48.758;9.150;2023-04-25T13:05:44;7.75;;;3.65;;
45354;SDS011;31091;48.758;9.150;2023-04-25T13:08:30;4.97;;;3.40;;
45354;SDS011;31091;48.758;9.150;2023-04-25T13:11:15;4.68;;;3.17;;
45354;SDS011;31091;48.758;9.150;2023-04-25T13:14:01;6.45;;;3.40;;
45354;SDS011;31091;48.758;9.150;2023-04-25T13:16:46;8.45;;;3.72;;
45354;SDS011;31091;48.758;9.150;2023-04-25T13:19:31;7.65;;;3.90;;
45354;SDS011;31091;48.758;9.150;2023-04-25T13:22:17;11.10;;;3.28;;
45354;SDS011;31091;48.758;9.150;2023-04-25T13:25:05;4.80;;;2.92;;
45354;SDS011;31091;48.758;9.150;2023-04-25T13:27:51;5.20;;;3.03;;
45354;SDS011;31091;48.758;9.150;2023-04-25T13:30:36;5.03;;;3.33;;
45354;SDS011;31091;48.758;9.150;2023-04-25T13:33:21;7.10;;;3.05;;
45354;SDS011;31091;48.758;9.150;2023-04-25T13:36:07;7.53;;;3.67;;
45354;SDS011;31091;48.758;9.150;2023-04-25T13:38:52;9.27;;;4.57;;
45354;SDS011;31091;48.758;9.150;2023-04-25T13:41:37;19.77;;;6.25;;
45354;SDS011;31091;48.758;9.150;2023-04-25T13:44:23;7.47;;;3.70;;
45354;SDS011;31091;48.758;9.150;2023-04-25T13:47:08;18.92;;;5.13;;
45354;SDS011;31091;48.758;9.150;2023-04-25T13:49:56;7.93;;;4.70;;
45354;SDS011;31091;48.758;9.150;2023-04-25T13:52:42;18.85;;;5.25;;
45354;SDS011;31091;48.758;9.150;2023-04-25T13:55:27;18.20;;;6.00;;
45354;SDS011;31091;48.758;9.150;2023-04-25T13:58:12;14.93;;;6.28;;
45354;SDS011;31091;48.758;9.150;2023-04-25T14:00:57;12.23;;;4.70;;
45354;SDS011;31091;48.758;9.150;2023-04-25T14:03:43;8.35;;;4.63;;
45354;SDS011;31091;48.758;9.150;2023-04-25T14:06:28;9.13;;;5.00;;
45354;SDS011;31091;48.758;9.150;2023-04-25T14:09:13;6.88;;;4.95;;
45354;SDS011;31091;48.758;9.150;2023-04-25T14:12:00;8.50;;;4.82;;
45354;SDS011;31091;48.758;9.150;2023-04-25T14:14:45;6.93;;;4.45;;
45354;SDS011;31091;48.758;9.150;2023-04-25T14:17:30;10.77;;;4.75;;
45354;SDS011;31091;48.758;9.150;2023-04-25T14:20:16;7.82;;;4.03;;
45354;SDS011;31091;48.758;9.150;2023-04-25T14:23:05;7.00;;;4.40;;
45354;SDS011;31091;48.758;9.150;2023-04-25T14:25:50;8.32;;;4.18;;
45354;SDS011;31091;48.758;9.150;2023-04-25T14:28:35;7.15;;;4.32;;
45354;SDS011;31091;48.758;9.150;2023-04-25T14:31:20;6.75;;;4.22;;
45354;SDS011;31091;48.758;9.150;2023-04-25T14:34:06;7.30;;;4.40;;
45354;SDS011;31091;48.758;9.150;2023-04-25T14:36:52;8.77;;;4.40;;
45354;SDS011;31091;48.758;9.150;2023-04-25T14:39:37;6.18;;;3.53;;
45354;SDS011;31091;48.758;9.150;2023-04-25T14:42:22;8.35;;;4.00;;
45354;SDS011;31091;48.758;9.150;2023-04-25T14:45:08;6.85;;;3.75;;
45354;SDS011;31091;48.758;9.150;2023-04-25T14:47:53;6.90;;;3.95;;
45354;SDS011;31091;48.758;9.150;2023-04-25T14:50:38;9.05;;;5.43;;
45354;SDS011;31091;48.758;9.150;2023-04-25T14:53:23;5.30;;;3.45;;
45354;SDS011;31091;48.758;9.150;2023-04-25T14:56:09;6.78;;;3.10;;
45354;SDS011;31091;48.758;9.150;2023-04-25T14:58:54;4.75;;;3.38;;
45354;SDS011;31091;48.758;9.150;2023-04-25T15:01:39;7.35;;;2.70;;
45354;SDS011;31091;48.758;9.150;2023-04-25T15:04:25;9.73;;;3.05;;
45354;SDS011;31091;48.758;9.150;2023-04-25T15:07:10;4.32;;;2.63;;
45354;SDS011;31091;48.758;9.150;2023-04-25T15:09:56;7.40;;;3.10;;
45354;SDS011;31091;48.758;9.150;2023-04-25T15:12:42;19.42;;;3.63;;
45354;SDS011;31091;48.758;9.150;2023-04-25T15:15:27;5.13;;;3.47;;
45354;SDS011;31091;48.758;9.150;2023-04-25T15:18:12;7.38;;;3.65;;
45354;SDS011;31091;48.758;9.150;2023-04-25T15:20:58;6.03;;;3.13;;
45354;SDS011;31091;48.758;9.150;2023-04-25T15:23:43;10.70;;;3.28;;
45354;SDS011;31091;48.758;9.150;2023-04-25T15:26:28;5.82;;;3.13;;
45354;SDS011;31091;48.758;9.150;2023-04-25T15:29:13;7.63;;;4.07;;
45354;SDS011;31091;48.758;9.150;2023-04-25T15:31:59;5.00;;;3.20;;
45354;SDS011;31091;48.758;9.150;2023-04-25T15:34:44;4.85;;;3.00;;
45354;SDS011;31091;48.758;9.150;2023-04-25T15:37:29;5.85;;;3.85;;
45354;SDS011;31091;48.758;9.150;2023-04-25T15:40:15;5.60;;;3.35;;
45354;SDS011;31091;48.758;9.150;2023-04-25T15:43:01;8.00;;;3.42;;
45354;SDS011;31091;48.758;9.150;2023-04-25T15:45:46;6.53;;;3.83;;
45354;SDS011;31091;48.758;9.150;2023-04-25T15:48:31;7.50;;;4.05;;
45354;SDS011;31091;48.758;9.150;2023-04-25T15:51:17;4.32;;;3.15;;
45354;SDS011;31091;48.758;9.150;2023-04-25T15:54:02;5.93;;;3.72;;
45354;SDS011;31091;48.758;9.150;2023-04-25T15:56:47;4.32;;;3.10;;
45354;SDS011;31091;48.758;9.150;2023-04-25T15:59:33;6.85;;;3.80;;
45354;SDS011;31091;48.758;9.150;2023-04-25T16:02:18;6.18;;;3.80;;
45354;SDS011;31091;48.758;9.150;2023-04-25T16:05:03;6.28;;;3.95;;
45354;SDS011;31091;48.758;9.150;2023-04-25T16:07:49;5.40;;;3.72;;
45354;SDS011;31091;48.758;9.150;2023-04-25T16:10:34;10.82;;;6.13;;
45354;SDS011;31091;48.758;9.150;2023-04-25T16:13:20;6.70;;;4.10;;
45354;SDS011;31091;48.758;9.150;2023-04-25T16:16:05;8.75;;;4.75;;
45354;SDS011;31091;48.758;9.150;2023-04-25T16:18:51;12.38;;;4.10;;
45354;SDS011;31091;48.758;9.150;2023-04-25T16:21:36;7.15;;;4.05;;
45354;SDS011;31091;48.758;9.150;2023-04-25T16:24:21;8.57;;;3.92;;
45354;SDS011;31091;48.758;9.150;2023-04-25T16:27:07;8.68;;;3.75;;
45354;SDS011;31091;48.758;9.150;2023-04-25T16:29:52;13.40;;;3.65;;
45354;SDS011;31091;48.758;9.150;2023-04-25T16:32:37;7.10;;;3.80;;
45354;SDS011;31091;48.758;9.150;2023-04-25T16:35:24;7.15;;;3.70;;
45354;SDS011;31091;48.758;9.150;2023-04-25T16:38:09;7.13;;;3.92;;
45354;SDS011;31091;48.758;9.150;2023-04-25T16:40:54;8.00;;;3.63;;
45354;SDS011;31091;48.758;9.150;2023-04-25T16:43:40;7.50;;;3.92;;
45354;SDS011;31091;48.758;9.150;2023-04-25T16:46:28;9.00;;;4.82;;